createdAt,value
2019-04-01T00:00:37.716Z,1012.61
2019-04-01T00:01:37.696Z,1012.68
2019-04-01T00:02:37.719Z,1012.67
2019-04-01T00:03:37.685Z,1012.63
2019-04-01T00:04:37.729Z,1012.67
2019-04-01T00:05:37.656Z,1012.70
2019-04-01T00:06:37.649Z,1012.60
2019-04-01T00:07:37.639Z,1012.70
2019-04-01T00:08:37.639Z,1012.58
2019-04-01T00:09:37.657Z,1012.63
2019-04-01T00:10:37.599Z,1012.67
2019-04-01T00:11:37.598Z,1012.63
2019-04-01T00:12:37.590Z,1012.66
2019-04-01T00:13:37.605Z,1012.67
2019-04-01T00:14:37.555Z,1012.63
2019-04-01T00:15:37.570Z,1012.57
2019-04-01T00:16:37.536Z,1012.65
2019-04-01T00:17:37.566Z,1012.66
2019-04-01T00:18:37.516Z,1012.61
2019-04-01T00:19:37.505Z,1012.59
2019-04-01T00:20:37.495Z,1012.54
2019-04-01T00:21:37.485Z,1012.57
2019-04-01T00:22:37.548Z,1012.64
2019-04-01T00:23:37.456Z,1012.55
2019-04-01T00:24:37.457Z,1012.54
2019-04-01T00:25:37.452Z,1012.60
2019-04-01T00:26:37.424Z,1012.54
2019-04-01T00:27:37.455Z,1012.46
2019-04-01T00:28:37.414Z,1012.54
2019-04-01T00:29:37.409Z,1012.53
2019-04-01T00:30:37.388Z,1012.57
2019-04-01T00:31:37.418Z,1012.60
2019-04-01T00:32:37.364Z,1012.59
2019-04-01T00:33:37.356Z,1012.55
2019-04-01T00:34:37.344Z,1012.56
2019-04-01T00:35:37.345Z,1012.59
2019-04-01T00:36:37.354Z,1012.57
2019-04-01T00:37:37.305Z,1012.61
2019-04-01T00:38:37.304Z,1012.59
2019-04-01T00:39:37.294Z,1012.64
2019-04-01T00:40:37.275Z,1012.61
2019-04-01T00:41:37.278Z,1012.52
2019-04-01T00:42:37.294Z,1012.57
2019-04-01T00:43:37.244Z,1012.54
2019-04-01T00:44:40.201Z,1012.50
2019-04-01T00:45:37.244Z,1012.53
2019-04-01T00:46:37.227Z,1012.50
2019-04-01T00:47:37.256Z,1012.55
2019-04-01T00:48:37.215Z,1012.56
2019-04-01T00:49:37.174Z,1012.58
2019-04-01T00:50:37.175Z,1012.57
2019-04-01T00:51:37.194Z,1012.52
2019-04-01T00:52:37.143Z,1012.56
2019-04-01T00:53:37.134Z,1012.55
2019-04-01T00:54:37.123Z,1012.52
2019-04-01T00:55:37.123Z,1012.51
2019-04-01T00:56:37.144Z,1012.47
2019-04-01T00:57:37.094Z,1012.54
2019-04-01T00:58:37.083Z,1012.46
2019-04-01T00:59:37.093Z,1012.43
2019-04-01T01:00:37.062Z,1012.51
2019-04-01T01:01:37.053Z,1012.49
2019-04-01T01:02:37.093Z,1012.51
2019-04-01T01:03:37.067Z,1012.53
2019-04-01T01:04:37.082Z,1012.50
2019-04-01T01:05:37.003Z,1012.51
2019-04-01T01:06:36.995Z,1012.44
2019-04-01T01:07:36.994Z,1012.43
2019-04-01T01:08:36.996Z,1012.50
2019-04-01T01:09:36.973Z,1012.39
2019-04-01T01:10:36.953Z,1012.39
2019-04-01T01:11:36.952Z,1012.35
2019-04-01T01:12:36.937Z,1012.45
2019-04-01T01:13:36.953Z,1012.42
2019-04-01T01:14:36.926Z,1012.40
2019-04-01T01:15:36.903Z,1012.43
2019-04-01T01:16:36.892Z,1012.39
2019-04-01T01:17:36.885Z,1012.39
2019-04-01T01:18:36.863Z,1012.44
2019-04-01T01:19:36.903Z,1012.46
2019-04-01T01:20:36.852Z,1012.38
2019-04-01T01:21:36.842Z,1012.37
2019-04-01T01:22:36.865Z,1012.42
2019-04-01T01:23:36.822Z,1012.38
2019-04-01T01:24:36.812Z,1012.34
2019-04-01T01:25:36.802Z,1012.32
2019-04-01T01:26:36.791Z,1012.36
2019-04-01T01:27:36.815Z,1012.38
2019-04-01T01:28:36.762Z,1012.40
2019-04-01T01:29:36.752Z,1012.30
2019-04-01T01:30:36.780Z,1012.32
2019-04-01T01:31:36.732Z,1012.34
2019-04-01T01:32:36.752Z,1012.43
2019-04-01T01:33:36.701Z,1012.33
2019-04-01T01:34:36.705Z,1012.37
2019-04-01T01:35:36.692Z,1012.41
2019-04-01T01:36:36.682Z,1012.36
2019-04-01T01:37:36.681Z,1012.33
2019-04-01T01:38:36.693Z,1012.38
2019-04-01T01:39:36.655Z,1012.30
2019-04-01T01:40:36.631Z,1012.35
2019-04-01T01:41:36.624Z,1012.25
2019-04-01T01:42:36.613Z,1012.40
2019-04-01T01:43:36.684Z,1012.30
2019-04-01T01:44:36.591Z,1012.29
2019-04-01T01:45:36.583Z,1012.39
2019-04-01T01:46:36.570Z,1012.32
2019-04-01T01:47:36.552Z,1012.34
2019-04-01T01:48:36.541Z,1012.41
2019-04-01T01:49:36.571Z,1012.31
2019-04-01T01:50:36.544Z,1012.35
2019-04-01T01:51:36.519Z,1012.36
2019-04-01T01:52:36.522Z,1012.45
2019-04-01T01:53:36.490Z,1012.33
2019-04-01T01:54:36.481Z,1012.38
2019-04-01T01:55:36.510Z,1012.40
2019-04-01T01:56:36.476Z,1012.37
2019-04-01T01:57:36.451Z,1012.38
2019-04-01T01:58:36.440Z,1012.34
2019-04-01T01:59:36.421Z,1012.33
2019-04-01T02:00:36.420Z,1012.33
2019-04-01T02:01:36.441Z,1012.36
2019-04-01T02:02:36.400Z,1012.30
2019-04-01T02:03:36.406Z,1012.28
2019-04-01T02:04:36.370Z,1012.26
2019-04-01T02:05:36.390Z,1012.26
2019-04-01T02:06:36.359Z,1012.28
2019-04-01T02:07:36.355Z,1012.27
2019-04-01T02:08:36.330Z,1012.22
2019-04-01T02:09:36.320Z,1012.22
2019-04-01T02:10:36.309Z,1012.25
2019-04-01T02:11:36.319Z,1012.22
2019-04-01T02:12:36.301Z,1012.23
2019-04-01T02:13:36.366Z,1012.20
2019-04-01T02:14:36.259Z,1012.26
2019-04-01T02:15:36.268Z,1012.20
2019-04-01T02:16:36.239Z,1012.23
2019-04-01T02:17:36.270Z,1012.27
2019-04-01T02:18:36.239Z,1012.24
2019-04-01T02:19:36.220Z,1012.20
2019-04-01T02:20:36.219Z,1012.19
2019-04-01T02:21:36.248Z,1012.21
2019-04-01T02:22:36.187Z,1012.25
2019-04-01T02:23:36.178Z,1012.22
2019-04-01T02:24:36.167Z,1012.20
2019-04-01T02:25:36.149Z,1012.21
2019-04-01T02:26:36.139Z,1012.19
2019-04-01T02:27:36.139Z,1012.16
2019-04-01T02:28:36.118Z,1012.22
2019-04-01T02:29:36.112Z,1012.16
2019-04-01T02:30:36.150Z,1012.25
2019-04-01T02:31:36.096Z,1012.27
2019-04-01T02:32:36.109Z,1012.23
2019-04-01T02:33:36.059Z,1012.20
2019-04-01T02:34:36.059Z,1012.22
2019-04-01T02:35:36.054Z,1012.24
2019-04-01T02:36:36.034Z,1012.24
2019-04-01T02:37:36.062Z,1012.25
2019-04-01T02:38:36.028Z,1012.20
2019-04-01T02:39:35.999Z,1012.24
2019-04-01T02:40:36.002Z,1012.26
2019-04-01T02:41:35.987Z,1012.16
2019-04-01T02:42:36.009Z,1012.16
2019-04-01T02:43:35.962Z,1012.20
2019-04-01T02:44:35.951Z,1012.29
2019-04-01T02:45:35.957Z,1012.19
2019-04-01T02:46:35.934Z,1012.14
2019-04-01T02:47:35.920Z,1012.28
2019-04-01T02:48:35.941Z,1012.22
2019-04-01T02:49:35.979Z,1012.25
2019-04-01T02:50:35.879Z,1012.27
2019-04-01T02:51:35.868Z,1012.26
2019-04-01T02:52:35.885Z,1012.21
2019-04-01T02:53:35.870Z,1012.12
2019-04-01T02:54:35.837Z,1012.13
2019-04-01T02:55:35.857Z,1012.19
2019-04-01T02:56:35.830Z,1012.14
2019-04-01T02:57:35.807Z,1012.22
2019-04-01T02:58:35.806Z,1012.23
2019-04-01T02:59:35.777Z,1012.16
2019-04-01T03:00:35.827Z,1012.14
2019-04-01T03:01:35.777Z,1012.16
2019-04-01T03:02:35.757Z,1012.14
2019-04-01T03:03:35.738Z,1012.19
2019-04-01T03:04:35.740Z,1012.19
2019-04-01T03:05:35.732Z,1012.16
2019-04-01T03:06:35.766Z,1012.15
2019-04-01T03:07:35.707Z,1012.12
2019-04-01T03:08:35.686Z,1012.12
2019-04-01T03:09:35.676Z,1012.03
2019-04-01T03:10:35.689Z,1011.98
2019-04-01T03:11:35.657Z,1012.19
2019-04-01T03:12:35.710Z,1012.08
2019-04-01T03:13:35.649Z,1011.98
2019-04-01T03:14:35.629Z,1012.13
2019-04-01T03:15:35.658Z,1012.05
2019-04-01T03:16:35.607Z,1012.15
2019-04-01T03:17:35.600Z,1012.07
2019-04-01T03:18:35.609Z,1012.05
2019-04-01T03:19:35.568Z,1012.03
2019-04-01T03:20:35.594Z,1012.07
2019-04-01T03:21:35.548Z,1012.03
2019-04-01T03:22:35.548Z,1012.03
2019-04-01T03:23:35.539Z,1011.99
2019-04-01T03:24:35.517Z,1012.03
2019-04-01T03:25:35.507Z,1011.98
2019-04-01T03:26:35.537Z,1012.05
2019-04-01T03:27:35.485Z,1012.06
2019-04-01T03:28:35.474Z,1012.03
2019-04-01T03:29:35.462Z,1011.98
2019-04-01T03:30:35.458Z,1012.00
2019-04-01T03:31:35.493Z,1012.05
2019-04-01T03:32:35.486Z,1012.09
2019-04-01T03:33:35.424Z,1012.07
2019-04-01T03:34:35.416Z,1012.05
2019-04-01T03:35:35.407Z,1012.07
2019-04-01T03:36:35.396Z,1012.03
2019-04-01T03:37:35.439Z,1012.12
2019-04-01T03:38:35.388Z,1011.97
2019-04-01T03:39:35.355Z,1012.03
2019-04-01T03:40:35.359Z,1011.97
2019-04-01T03:41:35.344Z,1012.01
2019-04-01T03:42:35.365Z,1011.97
2019-04-01T03:43:35.398Z,1011.93
2019-04-01T03:44:35.305Z,1011.94
2019-04-01T03:45:35.295Z,1011.99
2019-04-01T03:46:35.276Z,1011.94
2019-04-01T03:47:35.301Z,1012.00
2019-04-01T03:48:35.257Z,1011.92
2019-04-01T03:49:35.285Z,1011.95
2019-04-01T03:50:35.244Z,1011.94
2019-04-01T03:51:35.235Z,1011.96
2019-04-01T03:52:35.224Z,1011.93
2019-04-01T03:53:35.245Z,1011.91
2019-04-01T03:54:35.220Z,1011.93
2019-04-01T03:55:35.201Z,1011.97
2019-04-01T03:56:35.177Z,1011.97
2019-04-01T03:57:35.168Z,1011.93
2019-04-01T03:58:35.227Z,1011.93
2019-04-01T03:59:35.194Z,1011.92
2019-04-01T04:00:35.133Z,1011.92
2019-04-01T04:01:35.123Z,1012.03
2019-04-01T04:02:35.114Z,1011.96
2019-04-01T04:03:35.124Z,1011.93
2019-04-01T04:04:35.094Z,1011.93
2019-04-01T04:05:35.121Z,1011.94
2019-04-01T04:06:35.063Z,1011.86
2019-04-01T04:07:35.054Z,1011.88
2019-04-01T04:08:35.061Z,1011.96
2019-04-01T04:09:35.049Z,1011.94
2019-04-01T04:10:35.085Z,1011.93
2019-04-01T04:11:35.014Z,1011.92
2019-04-01T04:12:35.076Z,1011.91
2019-04-01T04:13:34.994Z,1011.94
2019-04-01T04:14:34.982Z,1011.93
2019-04-01T04:15:35.010Z,1011.91
2019-04-01T04:16:34.964Z,1011.96
2019-04-01T04:17:34.958Z,1011.90
2019-04-01T04:18:34.982Z,1011.90
2019-04-01T04:19:34.936Z,1011.85
2019-04-01T04:20:34.923Z,1011.96
2019-04-01T04:21:34.914Z,1011.88
2019-04-01T04:22:34.945Z,1011.89
2019-04-01T04:23:34.886Z,1011.96
2019-04-01T04:24:34.884Z,1012.01
2019-04-01T04:25:34.903Z,1011.98
2019-04-01T04:26:34.952Z,1011.96
2019-04-01T04:27:34.842Z,1012.01
2019-04-01T04:28:34.832Z,1011.88
2019-04-01T04:29:34.826Z,1012.08
2019-04-01T04:30:34.801Z,1011.94
2019-04-01T04:31:34.803Z,1011.99
2019-04-01T04:32:34.812Z,1011.99
2019-04-01T04:33:34.794Z,1012.00
2019-04-01T04:34:34.762Z,1011.98
2019-04-01T04:35:34.752Z,1012.00
2019-04-01T04:36:34.756Z,1012.11
2019-04-01T04:37:34.752Z,1012.04
2019-04-01T04:38:34.738Z,1012.07
2019-04-01T04:39:34.722Z,1012.07
2019-04-01T04:40:34.702Z,1012.13
2019-04-01T04:41:34.691Z,1012.11
2019-04-01T04:42:34.681Z,1012.13
2019-04-01T04:43:34.705Z,1012.13
2019-04-01T04:44:34.670Z,1012.11
2019-04-01T04:45:34.665Z,1012.18
2019-04-01T04:46:34.657Z,1012.21
2019-04-01T04:47:34.631Z,1012.13
2019-04-01T04:48:34.634Z,1012.16
2019-04-01T04:49:34.619Z,1012.18
2019-04-01T04:50:34.591Z,1012.16
2019-04-01T04:51:34.591Z,1012.17
2019-04-01T04:52:34.581Z,1012.12
2019-04-01T04:53:34.560Z,1012.18
2019-04-01T04:54:34.573Z,1012.14
2019-04-01T04:55:34.550Z,1012.18
2019-04-01T04:56:34.540Z,1012.24
2019-04-01T04:57:34.520Z,1012.19
2019-04-01T04:58:34.510Z,1012.17
2019-04-01T04:59:34.507Z,1012.23
2019-04-01T05:00:34.490Z,1012.27
2019-04-01T05:01:34.509Z,1012.20
2019-04-01T05:02:34.469Z,1012.29
2019-04-01T05:03:34.464Z,1012.23
2019-04-01T05:04:34.449Z,1012.28
2019-04-01T05:05:34.439Z,1012.27
2019-04-01T05:06:34.435Z,1012.27
2019-04-01T05:07:34.429Z,1012.23
2019-04-01T05:08:34.409Z,1012.27
2019-04-01T05:09:34.403Z,1012.24
2019-04-01T05:10:34.388Z,1012.28
2019-04-01T05:11:34.402Z,1012.28
2019-04-01T05:12:34.373Z,1012.32
2019-04-01T05:13:37.830Z,1012.30
2019-04-01T05:14:34.339Z,1012.28
2019-04-01T05:15:34.337Z,1012.31
2019-04-01T05:16:34.317Z,1012.31
2019-04-01T05:17:34.308Z,1012.20
2019-04-01T05:18:34.295Z,1012.23
2019-04-01T05:19:34.298Z,1012.26
2019-04-01T05:20:34.288Z,1012.21
2019-04-01T05:21:34.269Z,1012.22
2019-04-01T05:22:34.248Z,1012.25
2019-04-01T05:23:34.268Z,1012.26
2019-04-01T05:24:34.268Z,1012.24
2019-04-01T05:25:34.248Z,1012.23
2019-04-01T05:26:34.229Z,1012.24
2019-04-01T05:27:34.210Z,1012.30
2019-04-01T05:28:34.196Z,1012.29
2019-04-01T05:29:34.187Z,1012.27
2019-04-01T05:30:34.208Z,1012.22
2019-04-01T05:31:34.165Z,1012.24
2019-04-01T05:32:34.148Z,1012.27
2019-04-01T05:33:34.137Z,1012.29
2019-04-01T05:34:34.128Z,1012.19
2019-04-01T05:35:34.118Z,1012.28
2019-04-01T05:36:34.182Z,1012.24
2019-04-01T05:37:34.111Z,1012.22
2019-04-01T05:38:34.077Z,1012.24
2019-04-01T05:39:34.067Z,1012.23
2019-04-01T05:40:34.057Z,1012.26
2019-04-01T05:41:34.047Z,1012.21
2019-04-01T05:42:34.076Z,1012.29
2019-04-01T05:43:34.029Z,1012.25
2019-04-01T05:44:34.017Z,1012.33
2019-04-01T05:45:34.046Z,1012.29
2019-04-01T05:46:34.076Z,1012.29
2019-04-01T05:47:33.977Z,1012.26
2019-04-01T05:48:33.976Z,1012.36
2019-04-01T05:49:33.968Z,1012.32
2019-04-01T05:50:33.955Z,1012.32
2019-04-01T05:51:33.946Z,1012.31
2019-04-01T05:52:33.990Z,1012.32
2019-04-01T05:53:33.916Z,1012.31
2019-04-01T05:54:33.928Z,1012.37
2019-04-01T05:55:33.947Z,1012.28
2019-04-01T05:56:33.886Z,1012.36
2019-04-01T05:57:33.876Z,1012.34
2019-04-01T05:58:33.866Z,1012.36
2019-04-01T05:59:33.869Z,1012.39
2019-04-01T06:00:33.846Z,1012.36
2019-04-01T06:01:33.875Z,1012.31
2019-04-01T06:02:33.826Z,1012.37
2019-04-01T06:03:33.816Z,1012.36
2019-04-01T06:04:33.796Z,1012.35
2019-04-01T06:05:33.785Z,1012.33
2019-04-01T06:06:33.818Z,1012.27
2019-04-01T06:07:33.778Z,1012.42
2019-04-01T06:08:33.809Z,1012.34
2019-04-01T06:09:33.758Z,1012.40
2019-04-01T06:10:33.736Z,1012.40
2019-04-01T06:11:33.726Z,1012.42
2019-04-01T06:12:33.727Z,1012.39
2019-04-01T06:13:33.726Z,1012.35
2019-04-01T06:14:33.698Z,1012.39
2019-04-01T06:15:33.677Z,1012.38
2019-04-01T06:16:33.676Z,1012.40
2019-04-01T06:17:33.656Z,1012.42
2019-04-01T06:18:33.726Z,1012.45
2019-04-01T06:19:33.645Z,1012.43
2019-04-01T06:20:33.640Z,1012.45
2019-04-01T06:21:33.615Z,1012.44
2019-04-01T06:22:33.613Z,1012.45
2019-04-01T06:23:33.595Z,1012.53
2019-04-01T06:24:33.620Z,1012.39
2019-04-01T06:25:33.576Z,1012.42
2019-04-01T06:26:33.568Z,1012.43
2019-04-01T06:27:33.554Z,1012.40
2019-04-01T06:28:33.545Z,1012.39
2019-04-01T06:29:33.565Z,1012.48
2019-04-01T06:30:33.573Z,1012.45
2019-04-01T06:31:33.505Z,1012.50
2019-04-01T06:32:33.507Z,1012.47
2019-04-01T06:33:33.484Z,1012.44
2019-04-01T06:34:33.475Z,1012.48
2019-04-01T06:35:33.475Z,1012.49
2019-04-01T06:36:33.503Z,1012.50
2019-04-01T06:37:33.444Z,1012.42
2019-04-01T06:38:33.424Z,1012.43
2019-04-01T06:39:33.425Z,1012.48
2019-04-01T06:40:33.444Z,1012.45
2019-04-01T06:41:33.463Z,1012.56
2019-04-01T06:42:33.395Z,1012.49
2019-04-01T06:43:33.414Z,1012.50
2019-04-01T06:44:33.375Z,1012.49
2019-04-01T06:45:33.354Z,1012.54
2019-04-01T06:46:33.353Z,1012.49
2019-04-01T06:47:33.347Z,1012.49
2019-04-01T06:48:33.364Z,1012.54
2019-04-01T06:49:33.314Z,1012.50
2019-04-01T06:50:33.357Z,1012.47
2019-04-01T06:51:33.284Z,1012.48
2019-04-01T06:52:33.286Z,1012.55
2019-04-01T06:53:33.265Z,1012.60
2019-04-01T06:54:33.277Z,1012.50
2019-04-01T06:55:33.254Z,1012.48
2019-04-01T06:56:33.297Z,1012.49
2019-04-01T06:57:33.233Z,1012.49
2019-04-01T06:58:33.227Z,1012.45
2019-04-01T06:59:33.212Z,1012.44
2019-04-01T07:00:33.194Z,1012.46
2019-04-01T07:01:33.201Z,1012.44
2019-04-01T07:02:33.213Z,1012.48
2019-04-01T07:03:33.174Z,1012.51
2019-04-01T07:04:33.146Z,1012.42
2019-04-01T07:05:33.135Z,1012.42
2019-04-01T07:06:33.124Z,1012.46
2019-04-01T07:07:33.177Z,1012.42
2019-04-01T07:08:33.125Z,1012.39
2019-04-01T07:09:33.095Z,1012.40
2019-04-01T07:10:33.105Z,1012.38
2019-04-01T07:11:33.182Z,1012.43
2019-04-01T07:12:33.123Z,1012.40
2019-04-01T07:13:33.084Z,1012.36
2019-04-01T07:14:33.034Z,1012.32
2019-04-01T07:15:33.064Z,1012.37
2019-04-01T07:16:33.017Z,1012.34
2019-04-01T07:17:33.004Z,1012.32
2019-04-01T07:18:32.994Z,1012.34
2019-04-01T07:19:33.047Z,1012.39
2019-04-01T07:20:32.976Z,1012.29
2019-04-01T07:21:32.968Z,1012.27
2019-04-01T07:22:32.955Z,1012.37
2019-04-01T07:23:32.947Z,1012.35
2019-04-01T07:24:32.935Z,1012.36
2019-04-01T07:25:34.287Z,1012.34
2019-04-01T07:26:32.916Z,1012.33
2019-04-01T07:27:32.905Z,1012.30
2019-04-01T07:28:32.925Z,1012.29
2019-04-01T07:29:32.876Z,1012.32
2019-04-01T07:30:32.903Z,1012.39
2019-04-01T07:31:32.857Z,1012.39
2019-04-01T07:32:32.845Z,1012.33
2019-04-01T07:33:32.849Z,1012.24
2019-04-01T07:34:32.865Z,1012.32
2019-04-01T07:35:32.815Z,1012.26
2019-04-01T07:36:32.808Z,1012.35
2019-04-01T07:37:32.825Z,1012.38
2019-04-01T07:38:32.784Z,1012.36
2019-04-01T07:39:32.804Z,1012.40
2019-04-01T07:40:32.755Z,1012.39
2019-04-01T07:41:32.755Z,1012.41
2019-04-01T07:42:32.747Z,1012.36
2019-04-01T07:43:32.725Z,1012.36
2019-04-01T07:44:32.715Z,1012.36
2019-04-01T07:45:34.616Z,1012.43
2019-04-01T07:46:32.697Z,1012.40
2019-04-01T07:47:32.689Z,1012.30
2019-04-01T07:48:32.693Z,1012.32
2019-04-01T07:49:32.666Z,1012.39
2019-04-01T07:50:32.646Z,1012.33
2019-04-01T07:51:32.676Z,1012.41
2019-04-01T07:52:32.627Z,1012.46
2019-04-01T07:53:32.617Z,1012.41
2019-04-01T07:54:32.598Z,1012.37
2019-04-01T07:55:32.627Z,1012.39
2019-04-01T07:56:32.586Z,1012.29
2019-04-01T07:57:32.883Z,1012.39
2019-04-01T07:58:32.556Z,1012.31
2019-04-01T07:59:32.556Z,1012.32
2019-04-01T08:00:32.536Z,1012.33
2019-04-01T08:01:32.537Z,1012.30
2019-04-01T08:02:32.516Z,1012.32
2019-04-01T08:03:32.547Z,1012.30
2019-04-01T08:04:32.532Z,1012.40
2019-04-01T08:05:32.480Z,1012.32
2019-04-01T08:06:32.467Z,1012.29
2019-04-01T08:07:32.458Z,1012.40
2019-04-01T08:08:32.510Z,1012.34
2019-04-01T08:09:32.439Z,1012.27
2019-04-01T08:10:32.437Z,1012.31
2019-04-01T08:11:32.427Z,1012.35
2019-04-01T08:12:32.408Z,1012.21
2019-04-01T08:13:32.539Z,1012.34
2019-04-01T08:14:32.401Z,1012.25
2019-04-01T08:15:32.378Z,1012.25
2019-04-01T08:16:32.412Z,1012.25
2019-04-01T08:17:32.349Z,1012.27
2019-04-01T08:18:34.053Z,1012.24
2019-04-01T08:19:32.337Z,1012.24
2019-04-01T08:20:32.321Z,1012.23
2019-04-01T08:21:32.311Z,1012.25
2019-04-01T08:22:32.325Z,1012.30
2019-04-01T08:23:32.293Z,1012.18
2019-04-01T08:24:32.320Z,1012.27
2019-04-01T08:25:32.260Z,1012.22
2019-04-01T08:26:32.253Z,1012.29
2019-04-01T08:27:32.250Z,1012.30
2019-04-01T08:28:32.231Z,1012.30
2019-04-01T08:29:32.228Z,1012.30
2019-04-01T08:30:32.330Z,1012.25
2019-04-01T08:31:32.201Z,1012.31
2019-04-01T08:32:32.181Z,1012.30
2019-04-01T08:33:32.196Z,1012.31
2019-04-01T08:34:32.171Z,1012.28
2019-04-01T08:35:32.191Z,1012.29
2019-04-01T08:36:32.141Z,1012.29
2019-04-01T08:37:32.141Z,1012.38
2019-04-01T08:38:32.125Z,1012.34
2019-04-01T08:39:32.125Z,1012.31
2019-04-01T08:40:32.132Z,1012.34
2019-04-01T08:41:32.122Z,1012.30
2019-04-01T08:42:32.082Z,1012.39
2019-04-01T08:43:32.102Z,1012.37
2019-04-01T08:44:32.073Z,1012.23
2019-04-01T08:45:32.056Z,1012.30
2019-04-01T08:46:32.037Z,1012.27
2019-04-01T08:47:32.053Z,1012.30
2019-04-01T08:48:35.396Z,1012.29
2019-04-01T08:49:31.997Z,1012.23
2019-04-01T08:50:31.995Z,1012.26
2019-04-01T08:51:32.014Z,1012.31
2019-04-01T08:52:31.977Z,1012.30
2019-04-01T08:53:31.966Z,1012.31
2019-04-01T08:54:31.946Z,1012.22
2019-04-01T08:55:31.934Z,1012.30
2019-04-01T08:56:31.956Z,1012.18
2019-04-01T08:57:31.930Z,1012.27
2019-04-01T08:58:31.895Z,1012.25
2019-04-01T08:59:31.925Z,1012.23
2019-04-01T09:00:31.885Z,1012.22
2019-04-01T09:01:35.551Z,1012.16
2019-04-01T09:02:31.864Z,1012.16
2019-04-01T09:03:31.847Z,1012.26
2019-04-01T09:04:31.876Z,1012.18
2019-04-01T09:05:31.818Z,1012.17
2019-04-01T09:06:31.835Z,1012.20
2019-04-01T09:07:31.828Z,1012.16
2019-04-01T09:08:31.787Z,1012.25
2019-04-01T09:09:31.790Z,1012.17
2019-04-01T09:10:31.767Z,1012.13
2019-04-01T09:11:31.758Z,1012.15
2019-04-01T09:12:31.748Z,1012.09
2019-04-01T09:13:31.801Z,1012.06
2019-04-01T09:14:31.728Z,1012.09
2019-04-01T09:15:31.708Z,1012.09
2019-04-01T09:16:31.708Z,1012.13
2019-04-01T09:17:31.692Z,1012.06
2019-04-01T09:18:31.719Z,1012.11
2019-04-01T09:19:31.669Z,1012.13
2019-04-01T09:20:31.668Z,1012.12
2019-04-01T09:21:31.651Z,1012.12
2019-04-01T09:22:31.653Z,1012.08
2019-04-01T09:23:31.640Z,1012.06
2019-04-01T09:24:31.611Z,1012.09
2019-04-01T09:25:31.623Z,1012.00
2019-04-01T09:26:31.601Z,1011.97
2019-04-01T09:27:31.591Z,1011.95
2019-04-01T09:28:31.621Z,1012.02
2019-04-01T09:29:31.572Z,1011.97
2019-04-01T09:30:31.552Z,1011.97
2019-04-01T09:31:31.542Z,1012.01
2019-04-01T09:32:31.546Z,1012.00
2019-04-01T09:33:31.537Z,1011.98
2019-04-01T09:34:31.543Z,1011.97
2019-04-01T09:35:31.494Z,1011.95
2019-04-01T09:36:31.493Z,1011.92
2019-04-01T09:37:31.487Z,1011.92
2019-04-01T09:38:31.466Z,1011.98
2019-04-01T09:39:31.507Z,1011.94
2019-04-01T09:40:31.446Z,1011.93
2019-04-01T09:41:31.434Z,1011.85
2019-04-01T09:42:31.521Z,1011.84
2019-04-01T09:43:31.407Z,1011.91
2019-04-01T09:44:36.922Z,1011.90
2019-04-01T09:45:32.397Z,1011.84
2019-04-01T09:46:31.375Z,1011.76
2019-04-01T09:47:31.375Z,1011.73
2019-04-01T09:48:31.426Z,1011.70
2019-04-01T09:49:31.360Z,1011.68
2019-04-01T09:50:31.336Z,1011.63
2019-04-01T09:51:31.340Z,1011.75
2019-04-01T09:52:31.322Z,1011.72
2019-04-01T09:53:31.307Z,1011.74
2019-04-01T09:54:31.350Z,1011.56
2019-04-01T09:55:31.277Z,1011.70
2019-04-01T09:56:31.267Z,1011.67
2019-04-01T09:57:31.258Z,1011.64
2019-04-01T09:58:31.261Z,1011.67
2019-04-01T09:59:31.278Z,1011.63
2019-04-01T10:00:31.228Z,1011.54
2019-04-01T10:01:31.221Z,1011.58
2019-04-01T10:02:32.411Z,1011.55
2019-04-01T10:03:31.250Z,1011.59
2019-04-01T10:04:31.180Z,1011.60
2019-04-01T10:05:31.183Z,1011.53
2019-04-01T10:06:31.160Z,1011.56
2019-04-01T10:07:31.181Z,1011.62
2019-04-01T10:08:42.007Z,1011.55
2019-04-01T10:09:32.161Z,1011.53
2019-04-01T10:10:31.144Z,1011.42
2019-04-01T10:11:31.101Z,1011.42
2019-04-01T10:12:31.091Z,1011.38
2019-04-01T10:13:31.158Z,1011.33
2019-04-01T10:14:31.080Z,1011.28
2019-04-01T10:15:31.063Z,1011.35
2019-04-01T10:16:31.064Z,1011.23
2019-04-01T10:17:31.043Z,1011.28
2019-04-01T10:18:31.085Z,1011.35
2019-04-01T10:19:31.023Z,1011.20
2019-04-01T10:20:31.004Z,1011.23
2019-04-01T10:21:31.006Z,1011.22
2019-04-01T10:22:30.994Z,1011.30
2019-04-01T10:23:30.995Z,1011.33
2019-04-01T10:24:30.995Z,1011.23
2019-04-01T10:25:30.954Z,1011.27
2019-04-01T10:26:30.945Z,1011.21
2019-04-01T10:27:30.925Z,1011.17
2019-04-01T10:28:32.378Z,1011.18
2019-04-01T10:29:30.906Z,1011.19
2019-04-01T10:30:30.937Z,1011.16
2019-04-01T10:31:30.888Z,1011.18
2019-04-01T10:32:30.877Z,1011.20
2019-04-01T10:33:30.867Z,1011.20
2019-04-01T10:34:34.004Z,1011.09
2019-04-01T10:35:30.886Z,1011.12
2019-04-01T10:36:30.828Z,1011.12
2019-04-01T10:37:30.861Z,1011.13
2019-04-01T10:38:30.808Z,1011.08
2019-04-01T10:39:30.808Z,1011.13
2019-04-01T10:40:30.821Z,1011.06
2019-04-01T10:41:30.782Z,1011.15
2019-04-01T10:42:30.813Z,1011.04
2019-04-01T10:43:30.773Z,1011.05
2019-04-01T10:44:30.754Z,1010.97
2019-04-01T10:45:30.741Z,1011.05
2019-04-01T10:46:30.738Z,1010.94
2019-04-01T10:47:30.838Z,1010.96
2019-04-01T10:48:30.712Z,1011.03
2019-04-01T10:49:32.291Z,1010.93
2019-04-01T10:50:30.740Z,1011.02
2019-04-01T10:51:30.733Z,1010.96
2019-04-01T10:52:30.725Z,1010.92
2019-04-01T10:53:30.710Z,1010.93
2019-04-01T10:54:30.751Z,1010.91
2019-04-01T10:55:30.693Z,1010.96
2019-04-01T10:56:30.665Z,1010.93
2019-04-01T10:57:30.735Z,1010.90
2019-04-01T10:58:30.640Z,1010.82
2019-04-01T10:59:30.606Z,1010.78
2019-04-01T11:00:30.588Z,1010.81
2019-04-01T11:01:30.588Z,1010.76
2019-04-01T11:02:30.595Z,1010.75
2019-04-01T11:03:30.638Z,1010.71
2019-04-01T11:04:30.546Z,1010.79
2019-04-01T11:05:30.560Z,1010.85
2019-04-01T11:06:30.560Z,1010.91
2019-04-01T11:07:30.555Z,1010.78
2019-04-01T11:08:30.529Z,1010.75
2019-04-01T11:09:38.085Z,1010.79
2019-04-01T11:10:31.490Z,1010.73
2019-04-01T11:11:30.458Z,1010.65
2019-04-01T11:12:30.452Z,1010.70
2019-04-01T11:13:30.458Z,1010.69
2019-04-01T11:14:30.438Z,1010.66
2019-04-01T11:15:30.458Z,1010.67
2019-04-01T11:16:31.829Z,1010.72
2019-04-01T11:17:30.450Z,1010.71
2019-04-01T11:18:30.398Z,1010.66
2019-04-01T11:19:30.389Z,1010.69
2019-04-01T11:20:30.379Z,1010.64
2019-04-01T11:21:30.411Z,1010.65
2019-04-01T11:22:31.787Z,1010.61
2019-04-01T11:23:30.340Z,1010.65
2019-04-01T11:24:30.344Z,1010.69
2019-04-01T11:25:30.325Z,1010.74
2019-04-01T11:26:30.301Z,1010.73
2019-04-01T11:27:30.334Z,1010.70
2019-04-01T11:28:30.285Z,1010.64
2019-04-01T11:29:30.274Z,1010.72
2019-04-01T11:30:30.263Z,1010.58
2019-04-01T11:31:30.258Z,1010.66
2019-04-01T11:32:30.283Z,1010.66
2019-04-01T11:33:30.318Z,1010.66
2019-04-01T11:34:30.214Z,1010.57
2019-04-01T11:35:30.256Z,1010.58
2019-04-01T11:36:30.234Z,1010.50
2019-04-01T11:37:30.188Z,1010.56
2019-04-01T11:38:30.179Z,1010.50
2019-04-01T11:39:30.206Z,1010.53
2019-04-01T11:40:30.172Z,1010.50
2019-04-01T11:41:30.198Z,1010.48
2019-04-01T11:42:30.187Z,1010.48
2019-04-01T11:43:30.177Z,1010.52
2019-04-01T11:44:30.155Z,1010.44
2019-04-01T11:45:30.099Z,1010.38
2019-04-01T11:46:30.086Z,1010.36
2019-04-01T11:47:30.096Z,1010.49
2019-04-01T11:48:30.103Z,1010.49
2019-04-01T11:49:30.121Z,1010.54
2019-04-01T11:50:30.082Z,1010.42
2019-04-01T11:51:33.007Z,1010.34
2019-04-01T11:52:31.023Z,1010.39
2019-04-01T11:53:30.007Z,1010.36
2019-04-01T11:54:29.991Z,1010.42
2019-04-01T11:55:30.001Z,1010.37
2019-04-01T11:56:29.970Z,1010.34
2019-04-01T11:57:29.960Z,1010.30
2019-04-01T11:58:29.950Z,1010.35
2019-04-01T11:59:29.971Z,1010.27
2019-04-01T12:00:29.931Z,1010.32
2019-04-01T12:01:29.913Z,1010.24
2019-04-01T12:02:29.915Z,1010.26
2019-04-01T12:03:29.914Z,1010.25
2019-04-01T12:04:29.921Z,1010.22
2019-04-01T12:05:29.872Z,1010.28